sensor_id;sensor_type;location;lat;lon;timestamp;temperature;humidity
55004;DHT22;40900;52.710;6.438;2023-03-26T00:01:33;7.60;99.90
55004;DHT22;40900;52.710;6.438;2023-03-26T00:04:01;7.60;99.90
55004;DHT22;40900;52.710;6.438;2023-03-26T00:06:30;7.60;99.90
55004;DHT22;40900;52.710;6.438;2023-03-26T00:08:57;7.60;99.90
55004;DHT22;40900;52.710;6.438;2023-03-26T00:11:25;7.50;99.90
55004;DHT22;40900;52.710;6.438;2023-03-26T00:13:52;7.50;99.90
55004;DHT22;40900;52.710;6.438;2023-03-26T00:16:21;7.50;99.90
55004;DHT22;40900;52.710;6.438;2023-03-26T00:18:47;7.50;99.90
55004;DHT22;40900;52.710;6.438;2023-03-26T00:21:16;7.50;99.90
55004;DHT22;40900;52.710;6.438;2023-03-26T00:23:43;7.60;99.90
55004;DHT22;40900;52.710;6.438;2023-03-26T00:26:09;7.50;99.90
55004;DHT22;40900;52.710;6.438;2023-03-26T00:28:40;7.50;99.90
55004;DHT22;40900;52.710;6.438;2023-03-26T00:31:08;7.50;99.90
55004;DHT22;40900;52.710;6.438;2023-03-26T00:33:34;7.50;99.90
55004;DHT22;40900;52.710;6.438;2023-03-26T00:36:10;7.40;99.90
55004;DHT22;40900;52.710;6.438;2023-03-26T00:38:39;7.40;99.90
55004;DHT22;40900;52.710;6.438;2023-03-26T00:41:07;7.40;99.90
55004;DHT22;40900;52.710;6.438;2023-03-26T00:43:43;7.50;99.90
55004;DHT22;40900;52.710;6.438;2023-03-26T00:46:10;7.40;99.90
55004;DHT22;40900;52.710;6.438;2023-03-26T00:48:36;7.40;99.90
55004;DHT22;40900;52.710;6.438;2023-03-26T00:51:04;7.40;99.90
55004;DHT22;40900;52.710;6.438;2023-03-26T00:53:31;7.50;99.90
55004;DHT22;40900;52.710;6.438;2023-03-26T00:55:58;7.50;99.90
55004;DHT22;40900;52.710;6.438;2023-03-26T00:58:26;7.50;99.90
55004;DHT22;40900;52.710;6.438;2023-03-26T01:00:55;7.50;99.90
55004;DHT22;40900;52.710;6.438;2023-03-26T01:03:23;7.50;99.90
55004;DHT22;40900;52.710;6.438;2023-03-26T01:05:57;7.40;99.90
55004;DHT22;40900;52.710;6.438;2023-03-26T01:08:28;7.40;99.90
55004;DHT22;40900;52.710;6.438;2023-03-26T01:10:57;7.40;99.90
55004;DHT22;40900;52.710;6.438;2023-03-26T01:13:37;7.40;99.90
55004;DHT22;40900;52.710;6.438;2023-03-26T01:16:08;7.40;99.90
55004;DHT22;40900;52.710;6.438;2023-03-26T01:18:46;7.40;99.90
55004;DHT22;40900;52.710;6.438;2023-03-26T01:21:13;7.40;99.90
55004;DHT22;40900;52.710;6.438;2023-03-26T01:23:54;7.30;99.90
55004;DHT22;40900;52.710;6.438;2023-03-26T01:35:16;7.40;99.90
55004;DHT22;40900;52.710;6.438;2023-03-26T01:40:32;7.40;99.90
55004;DHT22;40900;52.710;6.438;2023-03-26T01:45:41;7.40;99.90
55004;DHT22;40900;52.710;6.438;2023-03-26T01:48:07;7.40;99.90
55004;DHT22;40900;52.710;6.438;2023-03-26T01:50:33;7.40;99.90
55004;DHT22;40900;52.710;6.438;2023-03-26T01:52:59;7.40;99.90
55004;DHT22;40900;52.710;6.438;2023-03-26T01:55:31;7.40;99.90
55004;DHT22;40900;52.710;6.438;2023-03-26T02:04:28;7.30;99.90
55004;DHT22;40900;52.710;6.438;2023-03-26T02:07:32;7.20;99.90
55004;DHT22;40900;52.710;6.438;2023-03-26T02:10:02;7.20;99.90
55004;DHT22;40900;52.710;6.438;2023-03-26T02:12:31;7.20;99.90
55004;DHT22;40900;52.710;6.438;2023-03-26T02:14:59;7.10;99.90
55004;DHT22;40900;52.710;6.438;2023-03-26T02:17:26;7.10;99.90
55004;DHT22;40900;52.710;6.438;2023-03-26T02:19:55;7.10;99.90
55004;DHT22;40900;52.710;6.438;2023-03-26T02:22:21;7.10;99.90
55004;DHT22;40900;52.710;6.438;2023-03-26T02:24:47;7.10;99.90
55004;DHT22;40900;52.710;6.438;2023-03-26T02:27:13;7.00;99.90
55004;DHT22;40900;52.710;6.438;2023-03-26T02:29:43;7.00;99.90
55004;DHT22;40900;52.710;6.438;2023-03-26T02:32:10;7.10;99.90
55004;DHT22;40900;52.710;6.438;2023-03-26T02:34:42;7.00;99.90
55004;DHT22;40900;52.710;6.438;2023-03-26T02:37:08;7.00;99.90
55004;DHT22;40900;52.710;6.438;2023-03-26T02:39:34;7.00;99.90
55004;DHT22;40900;52.710;6.438;2023-03-26T02:42:00;7.00;99.90
55004;DHT22;40900;52.710;6.438;2023-03-26T02:44:26;6.90;99.90
55004;DHT22;40900;52.710;6.438;2023-03-26T02:46:52;7.00;99.90
55004;DHT22;40900;52.710;6.438;2023-03-26T02:49:17;7.00;99.90
55004;DHT22;40900;52.710;6.438;2023-03-26T02:51:43;7.00;99.90
55004;DHT22;40900;52.710;6.438;2023-03-26T02:54:09;7.10;99.90
55004;DHT22;40900;52.710;6.438;2023-03-26T02:56:35;7.00;99.90
55004;DHT22;40900;52.710;6.438;2023-03-26T02:59:01;7.10;99.90
55004;DHT22;40900;52.710;6.438;2023-03-26T03:01:27;7.00;99.90
55004;DHT22;40900;52.710;6.438;2023-03-26T03:03:55;7.00;99.90
55004;DHT22;40900;52.710;6.438;2023-03-26T03:06:21;7.10;99.90
55004;DHT22;40900;52.710;6.438;2023-03-26T03:08:47;7.10;99.90
55004;DHT22;40900;52.710;6.438;2023-03-26T03:11:15;7.10;99.90
55004;DHT22;40900;52.710;6.438;2023-03-26T03:13:43;7.00;99.90
55004;DHT22;40900;52.710;6.438;2023-03-26T03:16:09;7.00;99.90
55004;DHT22;40900;52.710;6.438;2023-03-26T03:18:35;7.00;99.90
55004;DHT22;40900;52.710;6.438;2023-03-26T03:21:02;6.90;99.90
55004;DHT22;40900;52.710;6.438;2023-03-26T03:23:31;6.90;99.90
55004;DHT22;40900;52.710;6.438;2023-03-26T03:26:00;6.90;99.90
55004;DHT22;40900;52.710;6.438;2023-03-26T03:28:27;6.90;99.90
55004;DHT22;40900;52.710;6.438;2023-03-26T03:30:53;6.90;99.90
55004;DHT22;40900;52.710;6.438;2023-03-26T03:33:22;6.80;99.90
55004;DHT22;40900;52.710;6.438;2023-03-26T03:35:49;6.80;99.90
55004;DHT22;40900;52.710;6.438;2023-03-26T03:38:16;6.70;99.90
55004;DHT22;40900;52.710;6.438;2023-03-26T03:40:45;6.70;99.90
55004;DHT22;40900;52.710;6.438;2023-03-26T03:43:10;6.70;99.90
55004;DHT22;40900;52.710;6.438;2023-03-26T03:45:39;6.60;99.90
55004;DHT22;40900;52.710;6.438;2023-03-26T03:48:05;6.60;99.90
55004;DHT22;40900;52.710;6.438;2023-03-26T03:50:30;6.50;99.90
55004;DHT22;40900;52.710;6.438;2023-03-26T03:52:56;6.60;99.90
55004;DHT22;40900;52.710;6.438;2023-03-26T03:55:24;6.60;99.90
55004;DHT22;40900;52.710;6.438;2023-03-26T03:57:52;6.60;99.90
55004;DHT22;40900;52.710;6.438;2023-03-26T04:00:18;6.50;99.90
55004;DHT22;40900;52.710;6.438;2023-03-26T04:02:44;6.50;99.90
55004;DHT22;40900;52.710;6.438;2023-03-26T04:05:12;6.50;99.90
55004;DHT22;40900;52.710;6.438;2023-03-26T04:07:38;6.50;99.90
55004;DHT22;40900;52.710;6.438;2023-03-26T04:10:06;6.50;99.90
55004;DHT22;40900;52.710;6.438;2023-03-26T04:12:31;6.50;99.90
55004;DHT22;40900;52.710;6.438;2023-03-26T04:15:00;6.40;99.90
55004;DHT22;40900;52.710;6.438;2023-03-26T04:17:26;6.50;99.90
55004;DHT22;40900;52.710;6.438;2023-03-26T04:19:52;6.50;99.90
55004;DHT22;40900;52.710;6.438;2023-03-26T04:22:19;6.60;99.90
55004;DHT22;40900;52.710;6.438;2023-03-26T04:24:46;6.60;99.90
55004;DHT22;40900;52.710;6.438;2023-03-26T04:27:28;6.60;99.90
55004;DHT22;40900;52.710;6.438;2023-03-26T04:29:56;6.60;99.90
55004;DHT22;40900;52.710;6.438;2023-03-26T04:32:28;6.60;99.90
55004;DHT22;40900;52.710;6.438;2023-03-26T04:34:57;6.60;99.90
55004;DHT22;40900;52.710;6.438;2023-03-26T04:37:27;6.60;99.90
55004;DHT22;40900;52.710;6.438;2023-03-26T04:39:56;6.70;99.90
55004;DHT22;40900;52.710;6.438;2023-03-26T04:42:22;6.70;99.90
55004;DHT22;40900;52.710;6.438;2023-03-26T04:44:48;6.70;99.90
55004;DHT22;40900;52.710;6.438;2023-03-26T04:47:16;6.70;99.90
55004;DHT22;40900;52.710;6.438;2023-03-26T04:49:43;6.80;99.90
55004;DHT22;40900;52.710;6.438;2023-03-26T04:52:13;6.80;99.90
55004;DHT22;40900;52.710;6.438;2023-03-26T04:54:39;6.80;99.90
55004;DHT22;40900;52.710;6.438;2023-03-26T04:57:44;6.90;99.90
55004;DHT22;40900;52.710;6.438;2023-03-26T05:00:15;6.90;99.90
55004;DHT22;40900;52.710;6.438;2023-03-26T05:02:44;6.90;99.90
55004;DHT22;40900;52.710;6.438;2023-03-26T05:05:10;6.90;99.90
55004;DHT22;40900;52.710;6.438;2023-03-26T05:07:36;6.90;99.90
55004;DHT22;40900;52.710;6.438;2023-03-26T05:10:03;6.90;99.90
55004;DHT22;40900;52.710;6.438;2023-03-26T05:12:29;6.90;99.90
55004;DHT22;40900;52.710;6.438;2023-03-26T05:14:55;6.90;99.90
55004;DHT22;40900;52.710;6.438;2023-03-26T05:17:22;6.90;99.90
55004;DHT22;40900;52.710;6.438;2023-03-26T05:19:49;6.90;99.90
55004;DHT22;40900;52.710;6.438;2023-03-26T05:22:17;6.90;99.90
55004;DHT22;40900;52.710;6.438;2023-03-26T05:24:42;7.00;99.90
55004;DHT22;40900;52.710;6.438;2023-03-26T05:27:13;7.00;99.90
55004;DHT22;40900;52.710;6.438;2023-03-26T05:29:39;7.00;99.90
55004;DHT22;40900;52.710;6.438;2023-03-26T05:32:06;7.00;99.90
55004;DHT22;40900;52.710;6.438;2023-03-26T05:34:32;7.00;99.90
55004;DHT22;40900;52.710;6.438;2023-03-26T05:36:57;7.00;99.90
55004;DHT22;40900;52.710;6.438;2023-03-26T05:39:23;7.10;99.90
55004;DHT22;40900;52.710;6.438;2023-03-26T05:41:51;7.10;99.90
55004;DHT22;40900;52.710;6.438;2023-03-26T05:44:17;7.10;99.90
55004;DHT22;40900;52.710;6.438;2023-03-26T05:46:43;7.10;99.90
55004;DHT22;40900;52.710;6.438;2023-03-26T05:49:09;7.10;99.90
55004;DHT22;40900;52.710;6.438;2023-03-26T05:51:35;7.10;99.90
55004;DHT22;40900;52.710;6.438;2023-03-26T05:54:00;7.10;99.90
55004;DHT22;40900;52.710;6.438;2023-03-26T05:56:26;7.10;99.90
55004;DHT22;40900;52.710;6.438;2023-03-26T05:58:52;7.10;99.90
55004;DHT22;40900;52.710;6.438;2023-03-26T06:01:18;7.20;99.90
55004;DHT22;40900;52.710;6.438;2023-03-26T06:03:44;7.20;99.90
55004;DHT22;40900;52.710;6.438;2023-03-26T06:06:13;7.20;99.90
55004;DHT22;40900;52.710;6.438;2023-03-26T06:08:44;7.20;99.90
55004;DHT22;40900;52.710;6.438;2023-03-26T06:11:11;7.30;99.90
55004;DHT22;40900;52.710;6.438;2023-03-26T06:13:38;7.30;99.90
55004;DHT22;40900;52.710;6.438;2023-03-26T06:16:04;7.30;99.90
55004;DHT22;40900;52.710;6.438;2023-03-26T06:18:30;7.30;99.90
55004;DHT22;40900;52.710;6.438;2023-03-26T06:20:56;7.30;99.90
55004;DHT22;40900;52.710;6.438;2023-03-26T06:23:22;7.30;99.90
55004;DHT22;40900;52.710;6.438;2023-03-26T06:25:48;7.30;99.90
55004;DHT22;40900;52.710;6.438;2023-03-26T06:28:14;7.40;99.90
55004;DHT22;40900;52.710;6.438;2023-03-26T06:30:40;7.40;99.90
55004;DHT22;40900;52.710;6.438;2023-03-26T06:33:06;7.40;99.90
55004;DHT22;40900;52.710;6.438;2023-03-26T06:35:32;7.40;99.90
55004;DHT22;40900;52.710;6.438;2023-03-26T06:37:58;7.40;99.90
55004;DHT22;40900;52.710;6.438;2023-03-26T06:40:24;7.40;99.90
55004;DHT22;40900;52.710;6.438;2023-03-26T06:42:50;7.40;99.90
55004;DHT22;40900;52.710;6.438;2023-03-26T06:45:16;7.40;99.90
55004;DHT22;40900;52.710;6.438;2023-03-26T06:47:42;7.40;99.90
55004;DHT22;40900;52.710;6.438;2023-03-26T06:50:09;7.50;99.90
55004;DHT22;40900;52.710;6.438;2023-03-26T06:52:37;7.50;99.90
55004;DHT22;40900;52.710;6.438;2023-03-26T06:55:04;7.50;99.90
55004;DHT22;40900;52.710;6.438;2023-03-26T06:57:31;7.60;99.90
55004;DHT22;40900;52.710;6.438;2023-03-26T06:59:57;7.60;99.90
55004;DHT22;40900;52.710;6.438;2023-03-26T07:02:23;7.70;99.90
55004;DHT22;40900;52.710;6.438;2023-03-26T07:04:48;7.70;99.90
55004;DHT22;40900;52.710;6.438;2023-03-26T07:07:14;7.80;99.90
55004;DHT22;40900;52.710;6.438;2023-03-26T07:09:40;7.90;99.90
55004;DHT22;40900;52.710;6.438;2023-03-26T07:12:05;7.90;99.90
55004;DHT22;40900;52.710;6.438;2023-03-26T07:14:31;8.00;99.90
55004;DHT22;40900;52.710;6.438;2023-03-26T07:16:58;7.90;99.90
55004;DHT22;40900;52.710;6.438;2023-03-26T07:19:24;8.00;99.90
55004;DHT22;40900;52.710;6.438;2023-03-26T07:21:50;8.10;99.90
55004;DHT22;40900;52.710;6.438;2023-03-26T07:24:17;8.00;99.90
55004;DHT22;40900;52.710;6.438;2023-03-26T07:27:09;8.00;99.90
55004;DHT22;40900;52.710;6.438;2023-03-26T07:29:52;8.00;99.90
55004;DHT22;40900;52.710;6.438;2023-03-26T07:32:26;7.90;99.90
55004;DHT22;40900;52.710;6.438;2023-03-26T07:35:04;7.90;99.90
55004;DHT22;40900;52.710;6.438;2023-03-26T07:46:31;7.90;99.90
55004;DHT22;40900;52.710;6.438;2023-03-26T07:48:59;7.90;99.90
55004;DHT22;40900;52.710;6.438;2023-03-26T07:51:27;7.90;99.90
55004;DHT22;40900;52.710;6.438;2023-03-26T07:53:53;8.00;99.90
55004;DHT22;40900;52.710;6.438;2023-03-26T07:56:40;8.00;99.90
55004;DHT22;40900;52.710;6.438;2023-03-26T07:59:33;8.00;99.90
55004;DHT22;40900;52.710;6.438;2023-03-26T08:10:22;8.10;99.90
55004;DHT22;40900;52.710;6.438;2023-03-26T08:13:21;8.20;99.90
55004;DHT22;40900;52.710;6.438;2023-03-26T08:19:02;8.20;99.90
55004;DHT22;40900;52.710;6.438;2023-03-26T08:24:47;8.20;99.90
55004;DHT22;40900;52.710;6.438;2023-03-26T08:27:38;8.30;99.90
55004;DHT22;40900;52.710;6.438;2023-03-26T08:30:20;8.40;99.90
55004;DHT22;40900;52.710;6.438;2023-03-26T08:32:56;8.40;99.90
55004;DHT22;40900;52.710;6.438;2023-03-26T08:35:23;8.40;99.90
55004;DHT22;40900;52.710;6.438;2023-03-26T08:37:48;8.40;99.90
55004;DHT22;40900;52.710;6.438;2023-03-26T08:57:47;8.30;99.90
55004;DHT22;40900;52.710;6.438;2023-03-26T09:35:53;8.50;99.90
55004;DHT22;40900;52.710;6.438;2023-03-26T09:41:17;8.60;99.90
55004;DHT22;40900;52.710;6.438;2023-03-26T09:49:24;8.80;99.90
55004;DHT22;40900;52.710;6.438;2023-03-26T09:51:55;8.80;99.90
55004;DHT22;40900;52.710;6.438;2023-03-26T09:57:34;9.00;99.90
55004;DHT22;40900;52.710;6.438;2023-03-26T10:03:26;9.10;99.90
55004;DHT22;40900;52.710;6.438;2023-03-26T10:17:30;9.80;99.90
55004;DHT22;40900;52.710;6.438;2023-03-26T10:20:01;10.00;99.90
55004;DHT22;40900;52.710;6.438;2023-03-26T10:33:29;11.30;99.90
55004;DHT22;40900;52.710;6.438;2023-03-26T10:53:03;12.60;99.90
55004;DHT22;40900;52.710;6.438;2023-03-26T10:55:39;12.70;99.90
55004;DHT22;40900;52.710;6.438;2023-03-26T10:58:25;13.10;99.90
55004;DHT22;40900;52.710;6.438;2023-03-26T11:01:09;12.90;99.90
55004;DHT22;40900;52.710;6.438;2023-03-26T11:03:44;12.60;99.90
55004;DHT22;40900;52.710;6.438;2023-03-26T11:09:43;12.10;99.90
55004;DHT22;40900;52.710;6.438;2023-03-26T11:12:19;12.00;99.90
55004;DHT22;40900;52.710;6.438;2023-03-26T11:20:45;11.60;99.90
55004;DHT22;40900;52.710;6.438;2023-03-26T11:23:22;11.30;99.90
55004;DHT22;40900;52.710;6.438;2023-03-26T11:34:19;11.10;99.90
55004;DHT22;40900;52.710;6.438;2023-03-26T11:36:50;10.90;99.90
55004;DHT22;40900;52.710;6.438;2023-03-26T11:39:28;11.10;99.90
55004;DHT22;40900;52.710;6.438;2023-03-26T11:42:07;11.00;99.90
55004;DHT22;40900;52.710;6.438;2023-03-26T11:44:40;10.80;99.90
55004;DHT22;40900;52.710;6.438;2023-03-26T11:47:09;10.80;99.90
55004;DHT22;40900;52.710;6.438;2023-03-26T11:49:37;10.70;99.90
55004;DHT22;40900;52.710;6.438;2023-03-26T11:52:04;10.70;99.90
55004;DHT22;40900;52.710;6.438;2023-03-26T11:54:32;10.70;99.90
55004;DHT22;40900;52.710;6.438;2023-03-26T11:57:12;10.70;99.90
55004;DHT22;40900;52.710;6.438;2023-03-26T12:00:03;10.90;99.90
55004;DHT22;40900;52.710;6.438;2023-03-26T12:02:39;10.80;99.90
55004;DHT22;40900;52.710;6.438;2023-03-26T12:07:45;11.00;99.90
55004;DHT22;40900;52.710;6.438;2023-03-26T12:10:23;11.10;99.90
55004;DHT22;40900;52.710;6.438;2023-03-26T12:12:55;11.10;99.90
55004;DHT22;40900;52.710;6.438;2023-03-26T12:15:23;11.00;99.90
55004;DHT22;40900;52.710;6.438;2023-03-26T12:17:52;11.00;99.90
55004;DHT22;40900;52.710;6.438;2023-03-26T12:23:01;11.10;99.90
55004;DHT22;40900;52.710;6.438;2023-03-26T12:25:37;10.90;99.90
55004;DHT22;40900;52.710;6.438;2023-03-26T12:30:52;11.20;99.90
55004;DHT22;40900;52.710;6.438;2023-03-26T12:33:25;11.50;99.90
55004;DHT22;40900;52.710;6.438;2023-03-26T12:35:53;11.60;99.90
55004;DHT22;40900;52.710;6.438;2023-03-26T12:38:29;11.40;99.90
55004;DHT22;40900;52.710;6.438;2023-03-26T12:41:11;11.30;99.90
55004;DHT22;40900;52.710;6.438;2023-03-26T12:43:42;11.30;99.90
55004;DHT22;40900;52.710;6.438;2023-03-26T12:46:32;11.40;99.90
55004;DHT22;40900;52.710;6.438;2023-03-26T12:49:02;11.40;99.90
55004;DHT22;40900;52.710;6.438;2023-03-26T12:51:54;11.20;99.90
55004;DHT22;40900;52.710;6.438;2023-03-26T13:08:36;10.60;99.90
55004;DHT22;40900;52.710;6.438;2023-03-26T13:19:09;10.60;99.90
55004;DHT22;40900;52.710;6.438;2023-03-26T13:27:21;10.60;99.90
55004;DHT22;40900;52.710;6.438;2023-03-26T13:33:16;10.50;99.90
55004;DHT22;40900;52.710;6.438;2023-03-26T13:43:26;10.20;99.90
55004;DHT22;40900;52.710;6.438;2023-03-26T13:46:04;10.10;99.90
55004;DHT22;40900;52.710;6.438;2023-03-26T13:51:32;10.00;99.90
55004;DHT22;40900;52.710;6.438;2023-03-26T13:57:01;10.00;99.90
55004;DHT22;40900;52.710;6.438;2023-03-26T14:02:42;9.90;99.90
55004;DHT22;40900;52.710;6.438;2023-03-26T14:05:10;9.90;99.90
55004;DHT22;40900;52.710;6.438;2023-03-26T14:08:35;9.90;99.90
55004;DHT22;40900;52.710;6.438;2023-03-26T14:10:50;9.90;99.90
55004;DHT22;40900;52.710;6.438;2023-03-26T14:13:32;9.90;99.90
55004;DHT22;40900;52.710;6.438;2023-03-26T14:18:43;9.90;99.90
55004;DHT22;40900;52.710;6.438;2023-03-26T14:34:32;9.90;99.90
55004;DHT22;40900;52.710;6.438;2023-03-26T14:39:59;9.80;99.90
55004;DHT22;40900;52.710;6.438;2023-03-26T14:42:49;9.90;99.90
55004;DHT22;40900;52.710;6.438;2023-03-26T14:53:44;9.90;99.90
55004;DHT22;40900;52.710;6.438;2023-03-26T15:12:47;9.60;99.90
55004;DHT22;40900;52.710;6.438;2023-03-26T15:16:01;9.50;99.90
55004;DHT22;40900;52.710;6.438;2023-03-26T15:44:35;9.30;99.90
55004;DHT22;40900;52.710;6.438;2023-03-26T15:47:16;9.40;99.90
55004;DHT22;40900;52.710;6.438;2023-03-26T15:49:57;9.40;99.90
55004;DHT22;40900;52.710;6.438;2023-03-26T15:52:34;9.40;99.90
55004;DHT22;40900;52.710;6.438;2023-03-26T15:55:26;9.20;99.90
55004;DHT22;40900;52.710;6.438;2023-03-26T15:58:04;9.10;99.90
55004;DHT22;40900;52.710;6.438;2023-03-26T16:00:40;9.00;99.90
55004;DHT22;40900;52.710;6.438;2023-03-26T16:03:30;9.00;99.90
55004;DHT22;40900;52.710;6.438;2023-03-26T16:11:59;8.90;99.90
55004;DHT22;40900;52.710;6.438;2023-03-26T16:17:01;9.10;99.90
55004;DHT22;40900;52.710;6.438;2023-03-26T16:22:43;9.20;99.90
55004;DHT22;40900;52.710;6.438;2023-03-26T16:25:56;9.10;99.90
55004;DHT22;40900;52.710;6.438;2023-03-26T16:28:30;8.90;99.90
55004;DHT22;40900;52.710;6.438;2023-03-26T16:31:28;8.70;99.90
55004;DHT22;40900;52.710;6.438;2023-03-26T16:36:42;8.60;99.90
55004;DHT22;40900;52.710;6.438;2023-03-26T16:39:21;8.40;99.90
55004;DHT22;40900;52.710;6.438;2023-03-26T16:44:21;8.30;99.90
55004;DHT22;40900;52.710;6.438;2023-03-26T16:55:22;8.40;99.90
55004;DHT22;40900;52.710;6.438;2023-03-26T17:03:28;8.30;99.90
55004;DHT22;40900;52.710;6.438;2023-03-26T17:14:27;8.10;99.90
55004;DHT22;40900;52.710;6.438;2023-03-26T17:19:43;8.10;99.90
55004;DHT22;40900;52.710;6.438;2023-03-26T17:30:49;8.00;99.90
55004;DHT22;40900;52.710;6.438;2023-03-26T17:41:02;7.60;99.90
55004;DHT22;40900;52.710;6.438;2023-03-26T17:46:11;7.60;99.90
55004;DHT22;40900;52.710;6.438;2023-03-26T17:48:41;7.50;99.90
55004;DHT22;40900;52.710;6.438;2023-03-26T17:56:50;7.40;99.90
55004;DHT22;40900;52.710;6.438;2023-03-26T17:59:22;7.30;99.90
55004;DHT22;40900;52.710;6.438;2023-03-26T18:01:58;7.40;99.90
55004;DHT22;40900;52.710;6.438;2023-03-26T18:04:38;7.40;99.90
55004;DHT22;40900;52.710;6.438;2023-03-26T18:15:38;7.10;99.90
55004;DHT22;40900;52.710;6.438;2023-03-26T18:18:19;7.00;99.90
55004;DHT22;40900;52.710;6.438;2023-03-26T18:20:48;6.90;99.90
55004;DHT22;40900;52.710;6.438;2023-03-26T18:23:40;6.90;99.90
55004;DHT22;40900;52.710;6.438;2023-03-26T18:28:51;6.90;99.90
55004;DHT22;40900;52.710;6.438;2023-03-26T18:31:23;6.80;99.90
55004;DHT22;40900;52.710;6.438;2023-03-26T18:33:53;6.80;99.90
55004;DHT22;40900;52.710;6.438;2023-03-26T18:36:23;6.80;99.90
55004;DHT22;40900;52.710;6.438;2023-03-26T18:38:50;6.70;99.90
55004;DHT22;40900;52.710;6.438;2023-03-26T18:41:35;6.70;99.90
55004;DHT22;40900;52.710;6.438;2023-03-26T18:44:05;6.70;99.90
55004;DHT22;40900;52.710;6.438;2023-03-26T18:46:32;6.60;99.90
55004;DHT22;40900;52.710;6.438;2023-03-26T18:49:02;6.60;99.90
55004;DHT22;40900;52.710;6.438;2023-03-26T18:51:29;6.50;99.90
55004;DHT22;40900;52.710;6.438;2023-03-26T18:53:57;6.40;99.90
55004;DHT22;40900;52.710;6.438;2023-03-26T18:56:38;6.40;99.90
55004;DHT22;40900;52.710;6.438;2023-03-26T18:59:31;6.40;99.90
55004;DHT22;40900;52.710;6.438;2023-03-26T19:02:09;6.40;99.90
55004;DHT22;40900;52.710;6.438;2023-03-26T19:04:35;6.40;99.90
55004;DHT22;40900;52.710;6.438;2023-03-26T19:07:03;6.30;99.90
55004;DHT22;40900;52.710;6.438;2023-03-26T19:09:31;6.30;99.90
55004;DHT22;40900;52.710;6.438;2023-03-26T19:12:06;6.30;99.90
55004;DHT22;40900;52.710;6.438;2023-03-26T19:14:32;6.30;99.90
55004;DHT22;40900;52.710;6.438;2023-03-26T19:17:03;6.40;99.90
55004;DHT22;40900;52.710;6.438;2023-03-26T19:19:34;6.30;99.90
55004;DHT22;40900;52.710;6.438;2023-03-26T19:22:04;6.30;99.90
55004;DHT22;40900;52.710;6.438;2023-03-26T19:24:32;6.30;99.90
55004;DHT22;40900;52.710;6.438;2023-03-26T19:26:58;6.30;99.90
55004;DHT22;40900;52.710;6.438;2023-03-26T19:29:27;6.30;99.90
55004;DHT22;40900;52.710;6.438;2023-03-26T19:32:01;6.20;99.90
55004;DHT22;40900;52.710;6.438;2023-03-26T19:34:37;6.30;99.90
55004;DHT22;40900;52.710;6.438;2023-03-26T19:39:46;6.20;99.90
55004;DHT22;40900;52.710;6.438;2023-03-26T19:42:18;6.20;99.90
55004;DHT22;40900;52.710;6.438;2023-03-26T19:44:45;6.20;99.90
55004;DHT22;40900;52.710;6.438;2023-03-26T19:47:24;6.10;99.90
55004;DHT22;40900;52.710;6.438;2023-03-26T19:49:56;6.20;99.90
55004;DHT22;40900;52.710;6.438;2023-03-26T19:52:27;6.10;99.90
55004;DHT22;40900;52.710;6.438;2023-03-26T19:55:02;6.10;99.90
55004;DHT22;40900;52.710;6.438;2023-03-26T19:57:29;6.00;99.90
55004;DHT22;40900;52.710;6.438;2023-03-26T19:59:57;6.00;99.90
55004;DHT22;40900;52.710;6.438;2023-03-26T20:02:24;5.90;99.90
55004;DHT22;40900;52.710;6.438;2023-03-26T20:04:49;5.90;99.90
55004;DHT22;40900;52.710;6.438;2023-03-26T20:07:23;5.90;99.90
55004;DHT22;40900;52.710;6.438;2023-03-26T20:09:52;5.80;99.90
55004;DHT22;40900;52.710;6.438;2023-03-26T20:12:18;5.80;99.90
55004;DHT22;40900;52.710;6.438;2023-03-26T20:14:47;5.80;99.90
55004;DHT22;40900;52.710;6.438;2023-03-26T20:17:15;5.70;99.90
55004;DHT22;40900;52.710;6.438;2023-03-26T20:19:43;5.70;99.90
55004;DHT22;40900;52.710;6.438;2023-03-26T20:22:15;5.70;99.90
55004;DHT22;40900;52.710;6.438;2023-03-26T20:24:42;5.60;99.90
55004;DHT22;40900;52.710;6.438;2023-03-26T20:27:09;5.60;99.90
55004;DHT22;40900;52.710;6.438;2023-03-26T20:29:37;5.50;99.90
55004;DHT22;40900;52.710;6.438;2023-03-26T20:32:03;5.50;99.90
55004;DHT22;40900;52.710;6.438;2023-03-26T20:34:33;5.50;99.90
55004;DHT22;40900;52.710;6.438;2023-03-26T20:36:59;5.40;99.90
55004;DHT22;40900;52.710;6.438;2023-03-26T20:39:25;5.40;99.90
55004;DHT22;40900;52.710;6.438;2023-03-26T20:41:52;5.40;99.90
55004;DHT22;40900;52.710;6.438;2023-03-26T20:44:19;5.30;99.90
55004;DHT22;40900;52.710;6.438;2023-03-26T20:46:47;5.30;99.90
55004;DHT22;40900;52.710;6.438;2023-03-26T20:49:14;5.20;99.90
55004;DHT22;40900;52.710;6.438;2023-03-26T20:51:40;5.20;99.90
55004;DHT22;40900;52.710;6.438;2023-03-26T20:54:16;5.20;99.90
55004;DHT22;40900;52.710;6.438;2023-03-26T20:56:42;5.10;99.90
55004;DHT22;40900;52.710;6.438;2023-03-26T20:59:09;5.10;99.90
55004;DHT22;40900;52.710;6.438;2023-03-26T21:01:35;5.10;99.90
55004;DHT22;40900;52.710;6.438;2023-03-26T21:04:02;5.10;99.90
55004;DHT22;40900;52.710;6.438;2023-03-26T21:06:28;5.00;99.90
55004;DHT22;40900;52.710;6.438;2023-03-26T21:08:54;5.00;99.90
55004;DHT22;40900;52.710;6.438;2023-03-26T21:14:07;4.90;99.90
55004;DHT22;40900;52.710;6.438;2023-03-26T21:16:35;5.00;99.90
55004;DHT22;40900;52.710;6.438;2023-03-26T21:19:01;4.90;99.90
55004;DHT22;40900;52.710;6.438;2023-03-26T21:24:38;4.90;99.90
55004;DHT22;40900;52.710;6.438;2023-03-26T21:29:53;4.90;99.90
55004;DHT22;40900;52.710;6.438;2023-03-26T21:32:20;4.90;99.90
55004;DHT22;40900;52.710;6.438;2023-03-26T21:34:47;4.90;99.90
55004;DHT22;40900;52.710;6.438;2023-03-26T21:37:15;4.80;99.90
55004;DHT22;40900;52.710;6.438;2023-03-26T21:39:43;4.80;99.90
55004;DHT22;40900;52.710;6.438;2023-03-26T21:42:10;4.70;99.90
55004;DHT22;40900;52.710;6.438;2023-03-26T21:44:37;4.60;99.90
55004;DHT22;40900;52.710;6.438;2023-03-26T21:47:04;4.50;99.90
55004;DHT22;40900;52.710;6.438;2023-03-26T21:49:32;4.50;99.90
55004;DHT22;40900;52.710;6.438;2023-03-26T21:51:58;4.30;99.90
55004;DHT22;40900;52.710;6.438;2023-03-26T21:54:31;4.30;99.90
55004;DHT22;40900;52.710;6.438;2023-03-26T21:59:34;4.20;99.90
55004;DHT22;40900;52.710;6.438;2023-03-26T22:04:56;4.00;99.90
55004;DHT22;40900;52.710;6.438;2023-03-26T22:09:52;4.00;99.90
55004;DHT22;40900;52.710;6.438;2023-03-26T22:12:18;3.90;99.90
55004;DHT22;40900;52.710;6.438;2023-03-26T22:14:43;3.90;99.90
55004;DHT22;40900;52.710;6.438;2023-03-26T22:17:09;3.80;99.90
55004;DHT22;40900;52.710;6.438;2023-03-26T22:19:35;3.70;99.90
55004;DHT22;40900;52.710;6.438;2023-03-26T22:22:01;3.70;99.90
55004;DHT22;40900;52.710;6.438;2023-03-26T22:24:27;3.70;99.90
55004;DHT22;40900;52.710;6.438;2023-03-26T22:26:53;3.60;99.90
55004;DHT22;40900;52.710;6.438;2023-03-26T22:29:19;3.60;99.90
55004;DHT22;40900;52.710;6.438;2023-03-26T22:31:44;3.70;99.90
55004;DHT22;40900;52.710;6.438;2023-03-26T22:34:10;3.60;99.90
55004;DHT22;40900;52.710;6.438;2023-03-26T22:36:36;3.60;99.90
55004;DHT22;40900;52.710;6.438;2023-03-26T22:39:02;3.60;99.90